sensor_id;sensor_type;location;lat;lon;timestamp;pressure;altitude;pressure_sealevel;temperature;humidity
35716;BME280;21840;44.920;8.616;2023-05-07T00:02:20;100356.91;;;23.42;35.48
35716;BME280;21840;44.920;8.616;2023-05-07T00:04:45;100361.66;;;23.40;35.66
35716;BME280;21840;44.920;8.616;2023-05-07T00:07:10;100364.50;;;23.20;36.87
35716;BME280;21840;44.920;8.616;2023-05-07T00:09:35;100362.09;;;23.12;37.09
35716;BME280;21840;44.920;8.616;2023-05-07T00:12:01;100368.66;;;23.16;36.95
35716;BME280;21840;44.920;8.616;2023-05-07T00:14:26;100358.06;;;23.28;36.50
35716;BME280;21840;44.920;8.616;2023-05-07T00:16:51;100358.00;;;23.09;36.68
35716;BME280;21840;44.920;8.616;2023-05-07T00:19:17;100355.69;;;23.13;36.42
35716;BME280;21840;44.920;8.616;2023-05-07T00:21:42;100353.47;;;23.10;36.47
35716;BME280;21840;44.920;8.616;2023-05-07T00:24:07;100356.81;;;22.98;36.30
35716;BME280;21840;44.920;8.616;2023-05-07T00:26:33;100350.88;;;22.90;36.68
35716;BME280;21840;44.920;8.616;2023-05-07T00:28:58;100342.78;;;22.96;36.61
35716;BME280;21840;44.920;8.616;2023-05-07T00:31:23;100348.13;;;23.03;36.54
35716;BME280;21840;44.920;8.616;2023-05-07T00:33:49;100347.06;;;22.79;36.46
35716;BME280;21840;44.920;8.616;2023-05-07T00:36:14;100349.25;;;23.20;35.89
35716;BME280;21840;44.920;8.616;2023-05-07T00:38:39;100336.66;;;23.46;35.53
35716;BME280;21840;44.920;8.616;2023-05-07T00:41:05;100342.56;;;23.55;34.94
35716;BME280;21840;44.920;8.616;2023-05-07T00:43:30;100344.34;;;23.61;34.85
35716;BME280;21840;44.920;8.616;2023-05-07T00:45:57;100348.09;;;23.60;34.54
35716;BME280;21840;44.920;8.616;2023-05-07T00:48:22;100340.59;;;23.43;34.38
35716;BME280;21840;44.920;8.616;2023-05-07T00:50:49;100331.78;;;23.61;34.27
35716;BME280;21840;44.920;8.616;2023-05-07T00:53:14;100326.13;;;23.69;34.05
35716;BME280;21840;44.920;8.616;2023-05-07T00:55:40;100333.31;;;23.76;34.00
35716;BME280;21840;44.920;8.616;2023-05-07T00:58:06;100323.94;;;23.85;33.92
35716;BME280;21840;44.920;8.616;2023-05-07T01:00:31;100336.69;;;23.89;33.79
35716;BME280;21840;44.920;8.616;2023-05-07T01:02:57;100332.19;;;23.83;33.70
35716;BME280;21840;44.920;8.616;2023-05-07T01:05:23;100336.81;;;23.95;33.76
35716;BME280;21840;44.920;8.616;2023-05-07T01:07:50;100335.09;;;24.00;33.54
35716;BME280;21840;44.920;8.616;2023-05-07T01:10:17;100331.59;;;24.00;33.58
35716;BME280;21840;44.920;8.616;2023-05-07T01:12:42;100333.63;;;24.04;33.55
35716;BME280;21840;44.920;8.616;2023-05-07T01:15:08;100332.09;;;24.08;33.82
35716;BME280;21840;44.920;8.616;2023-05-07T01:17:35;100331.06;;;23.91;34.05
35716;BME280;21840;44.920;8.616;2023-05-07T01:20:01;100339.72;;;23.75;34.37
35716;BME280;21840;44.920;8.616;2023-05-07T01:22:45;100340.91;;;23.79;34.34
35716;BME280;21840;44.920;8.616;2023-05-07T01:25:11;100342.75;;;23.78;34.55
35716;BME280;21840;44.920;8.616;2023-05-07T01:27:41;100347.91;;;23.80;34.51
35716;BME280;21840;44.920;8.616;2023-05-07T01:30:07;100351.97;;;23.64;35.06
35716;BME280;21840;44.920;8.616;2023-05-07T01:32:40;100353.19;;;23.43;35.87
35716;BME280;21840;44.920;8.616;2023-05-07T01:35:09;100344.63;;;23.53;35.75
35716;BME280;21840;44.920;8.616;2023-05-07T01:37:36;100341.38;;;23.25;38.27
35716;BME280;21840;44.920;8.616;2023-05-07T01:40:02;100350.63;;;23.30;38.23
35716;BME280;21840;44.920;8.616;2023-05-07T01:42:28;100350.66;;;23.48;37.52
35716;BME280;21840;44.920;8.616;2023-05-07T01:44:54;100348.47;;;23.38;37.35
35716;BME280;21840;44.920;8.616;2023-05-07T01:47:19;100348.81;;;23.23;38.01
35716;BME280;21840;44.920;8.616;2023-05-07T01:49:45;100359.50;;;23.48;38.14
35716;BME280;21840;44.920;8.616;2023-05-07T01:52:11;100367.50;;;23.30;38.83
35716;BME280;21840;44.920;8.616;2023-05-07T01:54:37;100370.44;;;22.90;40.36
35716;BME280;21840;44.920;8.616;2023-05-07T01:57:02;100366.13;;;23.21;39.91
35716;BME280;21840;44.920;8.616;2023-05-07T01:59:28;100368.13;;;23.32;39.29
35716;BME280;21840;44.920;8.616;2023-05-07T02:01:53;100375.91;;;23.34;38.57
35716;BME280;21840;44.920;8.616;2023-05-07T02:04:18;100372.16;;;22.78;39.03
35716;BME280;21840;44.920;8.616;2023-05-07T02:06:44;100371.56;;;23.14;38.40
35716;BME280;21840;44.920;8.616;2023-05-07T02:09:10;100375.56;;;23.30;37.88
35716;BME280;21840;44.920;8.616;2023-05-07T02:11:38;100379.31;;;23.22;36.77
35716;BME280;21840;44.920;8.616;2023-05-07T02:14:04;100375.91;;;23.09;36.67
35716;BME280;21840;44.920;8.616;2023-05-07T02:16:29;100376.00;;;23.27;36.31
35716;BME280;21840;44.920;8.616;2023-05-07T02:18:55;100376.59;;;23.29;37.33
35716;BME280;21840;44.920;8.616;2023-05-07T02:21:20;100373.06;;;23.03;39.02
35716;BME280;21840;44.920;8.616;2023-05-07T02:23:46;100378.66;;;22.95;39.83
35716;BME280;21840;44.920;8.616;2023-05-07T02:26:11;100382.25;;;22.76;40.77
35716;BME280;21840;44.920;8.616;2023-05-07T02:28:37;100377.53;;;22.78;40.23
35716;BME280;21840;44.920;8.616;2023-05-07T02:31:04;100376.13;;;22.69;40.51
35716;BME280;21840;44.920;8.616;2023-05-07T02:33:30;100378.44;;;22.58;40.92
35716;BME280;21840;44.920;8.616;2023-05-07T02:35:56;100368.19;;;22.49;40.19
35716;BME280;21840;44.920;8.616;2023-05-07T02:38:22;100371.16;;;22.14;41.20
35716;BME280;21840;44.920;8.616;2023-05-07T02:40:49;100376.94;;;22.11;41.05
35716;BME280;21840;44.920;8.616;2023-05-07T02:43:15;100379.81;;;22.16;41.20
35716;BME280;21840;44.920;8.616;2023-05-07T02:45:43;100391.56;;;22.22;40.75
35716;BME280;21840;44.920;8.616;2023-05-07T02:48:10;100386.09;;;22.55;40.32
35716;BME280;21840;44.920;8.616;2023-05-07T02:50:35;100388.31;;;22.65;40.25
35716;BME280;21840;44.920;8.616;2023-05-07T02:53:00;100391.09;;;22.31;40.80
35716;BME280;21840;44.920;8.616;2023-05-07T02:55:26;100390.84;;;22.46;41.18
35716;BME280;21840;44.920;8.616;2023-05-07T02:57:51;100395.13;;;22.54;41.09
35716;BME280;21840;44.920;8.616;2023-05-07T03:00:18;100389.41;;;22.50;40.96
35716;BME280;21840;44.920;8.616;2023-05-07T03:03:13;100401.63;;;22.78;40.05
35716;BME280;21840;44.920;8.616;2023-05-07T03:05:39;100399.72;;;22.85;39.63
35716;BME280;21840;44.920;8.616;2023-05-07T03:08:04;100396.00;;;22.86;39.19
35716;BME280;21840;44.920;8.616;2023-05-07T03:10:30;100393.13;;;22.88;39.22
35716;BME280;21840;44.920;8.616;2023-05-07T03:12:55;100387.16;;;22.86;38.98
35716;BME280;21840;44.920;8.616;2023-05-07T03:15:21;100386.19;;;22.73;39.18
35716;BME280;21840;44.920;8.616;2023-05-07T03:17:47;100381.88;;;22.72;39.04
35716;BME280;21840;44.920;8.616;2023-05-07T03:20:12;100376.25;;;22.87;38.98
35716;BME280;21840;44.920;8.616;2023-05-07T03:22:39;100376.13;;;22.69;39.12
35716;BME280;21840;44.920;8.616;2023-05-07T03:25:06;100372.19;;;22.71;39.45
35716;BME280;21840;44.920;8.616;2023-05-07T03:27:31;100375.47;;;22.73;39.39
35716;BME280;21840;44.920;8.616;2023-05-07T03:29:57;100374.75;;;22.59;39.79
35716;BME280;21840;44.920;8.616;2023-05-07T03:32:22;100387.41;;;22.39;38.63
35716;BME280;21840;44.920;8.616;2023-05-07T03:34:47;100387.78;;;22.36;38.22
35716;BME280;21840;44.920;8.616;2023-05-07T03:37:13;100394.09;;;22.61;37.97
35716;BME280;21840;44.920;8.616;2023-05-07T03:39:39;100401.50;;;22.59;37.99
35716;BME280;21840;44.920;8.616;2023-05-07T03:42:04;100404.59;;;22.56;37.49
35716;BME280;21840;44.920;8.616;2023-05-07T03:44:31;100413.00;;;22.67;38.78
35716;BME280;21840;44.920;8.616;2023-05-07T03:46:58;100415.00;;;22.26;42.02
35716;BME280;21840;44.920;8.616;2023-05-07T03:49:24;100411.75;;;22.04;42.02
35716;BME280;21840;44.920;8.616;2023-05-07T03:51:49;100414.81;;;22.14;41.91
35716;BME280;21840;44.920;8.616;2023-05-07T03:54:15;100411.94;;;21.96;42.19
35716;BME280;21840;44.920;8.616;2023-05-07T03:56:43;100415.84;;;22.00;42.17
35716;BME280;21840;44.920;8.616;2023-05-07T03:59:09;100421.66;;;21.70;42.92
35716;BME280;21840;44.920;8.616;2023-05-07T04:01:34;100430.50;;;21.78;41.96
35716;BME280;21840;44.920;8.616;2023-05-07T04:04:00;100427.56;;;21.26;41.83
35716;BME280;21840;44.920;8.616;2023-05-07T04:06:26;100423.41;;;21.03;41.88
35716;BME280;21840;44.920;8.616;2023-05-07T04:08:52;100433.69;;;21.13;41.71
35716;BME280;21840;44.920;8.616;2023-05-07T04:11:18;100428.34;;;21.00;42.06
35716;BME280;21840;44.920;8.616;2023-05-07T04:13:43;100439.34;;;20.77;42.58
35716;BME280;21840;44.920;8.616;2023-05-07T04:16:09;100431.59;;;20.95;42.08
35716;BME280;21840;44.920;8.616;2023-05-07T04:18:36;100440.63;;;20.87;42.02
35716;BME280;21840;44.920;8.616;2023-05-07T04:21:03;100441.78;;;20.72;42.24
35716;BME280;21840;44.920;8.616;2023-05-07T04:23:28;100437.50;;;20.77;42.07
35716;BME280;21840;44.920;8.616;2023-05-07T04:25:56;100441.41;;;20.81;41.99
35716;BME280;21840;44.920;8.616;2023-05-07T04:28:28;100451.09;;;20.96;41.70
35716;BME280;21840;44.920;8.616;2023-05-07T04:30:53;100446.19;;;21.06;41.63
35716;BME280;21840;44.920;8.616;2023-05-07T04:33:20;100446.84;;;21.21;41.24
35716;BME280;21840;44.920;8.616;2023-05-07T04:35:47;100448.47;;;21.09;41.39
35716;BME280;21840;44.920;8.616;2023-05-07T04:38:13;100450.00;;;21.45;40.90
35716;BME280;21840;44.920;8.616;2023-05-07T04:40:39;100448.56;;;21.56;40.50
35716;BME280;21840;44.920;8.616;2023-05-07T04:43:06;100455.78;;;21.55;40.58
35716;BME280;21840;44.920;8.616;2023-05-07T04:45:39;100449.00;;;21.72;40.23
35716;BME280;21840;44.920;8.616;2023-05-07T04:48:06;100447.34;;;21.71;39.93
35716;BME280;21840;44.920;8.616;2023-05-07T04:50:33;100444.69;;;21.85;39.74
35716;BME280;21840;44.920;8.616;2023-05-07T04:53:01;100441.56;;;22.01;39.32
35716;BME280;21840;44.920;8.616;2023-05-07T04:55:28;100446.31;;;21.99;39.43
35716;BME280;21840;44.920;8.616;2023-05-07T04:57:53;100439.94;;;22.00;39.08
35716;BME280;21840;44.920;8.616;2023-05-07T05:00:19;100447.09;;;22.33;38.73
35716;BME280;21840;44.920;8.616;2023-05-07T05:02:47;100449.50;;;22.54;38.20
35716;BME280;21840;44.920;8.616;2023-05-07T05:05:17;100446.78;;;22.61;37.81
35716;BME280;21840;44.920;8.616;2023-05-07T05:07:43;100447.34;;;22.76;37.65
35716;BME280;21840;44.920;8.616;2023-05-07T05:10:09;100443.22;;;22.74;37.38
35716;BME280;21840;44.920;8.616;2023-05-07T05:12:37;100445.69;;;22.82;37.31
35716;BME280;21840;44.920;8.616;2023-05-07T05:15:06;100442.50;;;23.05;36.84
35716;BME280;21840;44.920;8.616;2023-05-07T05:17:32;100439.06;;;22.85;37.04
35716;BME280;21840;44.920;8.616;2023-05-07T05:20:00;100443.00;;;22.82;37.04
35716;BME280;21840;44.920;8.616;2023-05-07T05:22:25;100444.19;;;22.86;36.98
35716;BME280;21840;44.920;8.616;2023-05-07T05:24:51;100444.13;;;23.06;36.78
35716;BME280;21840;44.920;8.616;2023-05-07T05:27:17;100449.34;;;23.26;35.99
35716;BME280;21840;44.920;8.616;2023-05-07T05:29:42;100464.03;;;23.48;37.04
35716;BME280;21840;44.920;8.616;2023-05-07T05:32:08;100461.66;;;23.34;38.34
35716;BME280;21840;44.920;8.616;2023-05-07T05:34:33;100469.81;;;23.52;38.59
35716;BME280;21840;44.920;8.616;2023-05-07T05:36:59;100463.00;;;23.24;39.62
35716;BME280;21840;44.920;8.616;2023-05-07T05:39:27;100467.22;;;23.07;40.48
35716;BME280;21840;44.920;8.616;2023-05-07T05:41:53;100462.94;;;22.99;40.20
35716;BME280;21840;44.920;8.616;2023-05-07T05:44:20;100470.88;;;23.13;39.92
35716;BME280;21840;44.920;8.616;2023-05-07T05:46:45;100468.91;;;23.01;39.67
35716;BME280;21840;44.920;8.616;2023-05-07T05:49:11;100474.56;;;23.18;39.04
35716;BME280;21840;44.920;8.616;2023-05-07T05:51:37;100478.53;;;23.41;39.07
35716;BME280;21840;44.920;8.616;2023-05-07T05:54:04;100473.72;;;23.24;39.07
35716;BME280;21840;44.920;8.616;2023-05-07T05:56:30;100484.38;;;23.31;38.95
35716;BME280;21840;44.920;8.616;2023-05-07T05:58:55;100488.84;;;23.06;39.54
35716;BME280;21840;44.920;8.616;2023-05-07T06:01:21;100487.22;;;23.36;39.01
35716;BME280;21840;44.920;8.616;2023-05-07T06:03:48;100473.47;;;23.26;39.34
35716;BME280;21840;44.920;8.616;2023-05-07T06:06:14;100480.84;;;23.37;39.60
35716;BME280;21840;44.920;8.616;2023-05-07T06:08:41;100483.06;;;23.40;39.62
35716;BME280;21840;44.920;8.616;2023-05-07T06:11:08;100485.28;;;23.18;39.49
35716;BME280;21840;44.920;8.616;2023-05-07T06:13:36;100489.78;;;23.24;39.30
35716;BME280;21840;44.920;8.616;2023-05-07T06:16:02;100489.25;;;23.09;39.91
35716;BME280;21840;44.920;8.616;2023-05-07T06:18:28;100485.41;;;23.30;39.20
35716;BME280;21840;44.920;8.616;2023-05-07T06:20:54;100490.47;;;23.45;38.99
35716;BME280;21840;44.920;8.616;2023-05-07T06:23:24;100497.66;;;23.19;39.14
35716;BME280;21840;44.920;8.616;2023-05-07T06:25:50;100484.97;;;23.33;39.22
35716;BME280;21840;44.920;8.616;2023-05-07T06:28:17;100480.53;;;23.20;38.90
35716;BME280;21840;44.920;8.616;2023-05-07T06:30:42;100482.59;;;23.50;38.44
35716;BME280;21840;44.920;8.616;2023-05-07T06:33:08;100482.03;;;23.73;37.99
35716;BME280;21840;44.920;8.616;2023-05-07T06:35:33;100482.47;;;23.95;37.97
35716;BME280;21840;44.920;8.616;2023-05-07T06:37:59;100489.44;;;23.78;38.00
35716;BME280;21840;44.920;8.616;2023-05-07T06:40:27;100490.91;;;23.99;37.76
35716;BME280;21840;44.920;8.616;2023-05-07T06:42:52;100500.22;;;24.21;37.43
35716;BME280;21840;44.920;8.616;2023-05-07T06:45:34;100489.28;;;24.41;36.66
35716;BME280;21840;44.920;8.616;2023-05-07T06:47:59;100496.13;;;24.37;36.85
35716;BME280;21840;44.920;8.616;2023-05-07T06:50:26;100502.50;;;24.80;36.39
35716;BME280;21840;44.920;8.616;2023-05-07T06:52:55;100500.59;;;24.98;36.44
35716;BME280;21840;44.920;8.616;2023-05-07T06:55:21;100499.47;;;25.06;36.29
35716;BME280;21840;44.920;8.616;2023-05-07T06:57:46;100497.59;;;25.07;36.13
35716;BME280;21840;44.920;8.616;2023-05-07T07:00:12;100498.38;;;24.77;36.65
35716;BME280;21840;44.920;8.616;2023-05-07T07:02:45;100492.94;;;24.47;37.61
35716;BME280;21840;44.920;8.616;2023-05-07T07:05:12;100501.31;;;25.06;36.42
35716;BME280;21840;44.920;8.616;2023-05-07T07:07:38;100493.13;;;25.61;35.83
35716;BME280;21840;44.920;8.616;2023-05-07T07:10:04;100496.53;;;25.26;36.31
35716;BME280;21840;44.920;8.616;2023-05-07T07:12:30;100493.53;;;25.88;35.27
35716;BME280;21840;44.920;8.616;2023-05-07T07:14:55;100480.69;;;26.02;35.01
35716;BME280;21840;44.920;8.616;2023-05-07T07:17:21;100480.19;;;25.93;34.66
35716;BME280;21840;44.920;8.616;2023-05-07T07:19:47;100490.34;;;25.79;34.18
35716;BME280;21840;44.920;8.616;2023-05-07T07:22:12;100489.78;;;26.13;33.70
35716;BME280;21840;44.920;8.616;2023-05-07T07:24:38;100488.88;;;26.07;33.88
35716;BME280;21840;44.920;8.616;2023-05-07T07:27:06;100496.84;;;26.14;33.92
35716;BME280;21840;44.920;8.616;2023-05-07T07:29:33;100494.31;;;26.47;33.56
35716;BME280;21840;44.920;8.616;2023-05-07T07:31:58;100497.84;;;26.60;33.13
35716;BME280;21840;44.920;8.616;2023-05-07T07:34:24;100490.59;;;26.37;33.54
35716;BME280;21840;44.920;8.616;2023-05-07T07:36:49;100487.09;;;26.24;33.96
35716;BME280;21840;44.920;8.616;2023-05-07T07:39:19;100483.50;;;26.07;34.12
35716;BME280;21840;44.920;8.616;2023-05-07T07:41:48;100486.41;;;26.29;33.88
35716;BME280;21840;44.920;8.616;2023-05-07T07:44:15;100480.06;;;26.47;33.56
35716;BME280;21840;44.920;8.616;2023-05-07T07:46:40;100485.13;;;26.32;33.86
35716;BME280;21840;44.920;8.616;2023-05-07T07:49:06;100488.03;;;26.30;33.99
35716;BME280;21840;44.920;8.616;2023-05-07T07:51:32;100497.09;;;25.70;34.51
35716;BME280;21840;44.920;8.616;2023-05-07T07:53:58;100495.63;;;25.98;33.83
35716;BME280;21840;44.920;8.616;2023-05-07T07:56:24;100504.22;;;25.23;34.67
35716;BME280;21840;44.920;8.616;2023-05-07T07:58:49;100496.00;;;26.01;33.88
35716;BME280;21840;44.920;8.616;2023-05-07T08:01:15;100499.16;;;25.98;33.47
35716;BME280;21840;44.920;8.616;2023-05-07T08:03:42;100502.53;;;26.53;33.29
35716;BME280;21840;44.920;8.616;2023-05-07T08:06:07;100504.00;;;26.84;32.89
35716;BME280;21840;44.920;8.616;2023-05-07T08:08:34;100500.19;;;26.44;33.10
35716;BME280;21840;44.920;8.616;2023-05-07T08:11:00;100496.75;;;26.84;32.73
35716;BME280;21840;44.920;8.616;2023-05-07T08:13:30;100501.78;;;27.21;31.99
35716;BME280;21840;44.920;8.616;2023-05-07T08:15:55;100495.69;;;27.14;32.10
35716;BME280;21840;44.920;8.616;2023-05-07T08:18:21;100491.03;;;27.55;31.52
35716;BME280;21840;44.920;8.616;2023-05-07T08:20:48;100485.97;;;26.73;32.52
35716;BME280;21840;44.920;8.616;2023-05-07T08:23:19;100487.75;;;27.07;32.02
35716;BME280;21840;44.920;8.616;2023-05-07T08:25:45;100493.13;;;27.19;32.08
35716;BME280;21840;44.920;8.616;2023-05-07T08:28:11;100487.75;;;27.53;31.67
35716;BME280;21840;44.920;8.616;2023-05-07T08:30:38;100484.19;;;27.81;31.25
35716;BME280;21840;44.920;8.616;2023-05-07T08:33:03;100479.13;;;28.02;30.95
35716;BME280;21840;44.920;8.616;2023-05-07T08:35:29;100485.09;;;27.87;31.06
35716;BME280;21840;44.920;8.616;2023-05-07T08:37:54;100483.34;;;27.81;31.23
35716;BME280;21840;44.920;8.616;2023-05-07T08:40:22;100486.94;;;28.20;30.58
35716;BME280;21840;44.920;8.616;2023-05-07T08:42:50;100484.38;;;28.08;30.94
35716;BME280;21840;44.920;8.616;2023-05-07T08:45:17;100482.13;;;28.05;30.77
35716;BME280;21840;44.920;8.616;2023-05-07T08:47:46;100484.94;;;28.32;30.30
35716;BME280;21840;44.920;8.616;2023-05-07T08:50:13;100489.28;;;27.94;31.14
35716;BME280;21840;44.920;8.616;2023-05-07T08:52:39;100490.75;;;28.41;30.62
35716;BME280;21840;44.920;8.616;2023-05-07T08:55:05;100493.38;;;28.36;30.24
35716;BME280;21840;44.920;8.616;2023-05-07T08:57:31;100501.22;;;27.99;30.49
35716;BME280;21840;44.920;8.616;2023-05-07T08:59:57;100487.88;;;28.48;29.92
35716;BME280;21840;44.920;8.616;2023-05-07T09:02:23;100487.44;;;27.49;31.10
35716;BME280;21840;44.920;8.616;2023-05-07T09:04:48;100491.41;;;27.92;30.45
35716;BME280;21840;44.920;8.616;2023-05-07T09:07:15;100491.75;;;27.96;30.07
35716;BME280;21840;44.920;8.616;2023-05-07T09:09:43;100490.75;;;27.68;30.70
35716;BME280;21840;44.920;8.616;2023-05-07T09:12:09;100487.66;;;27.93;30.33
35716;BME280;21840;44.920;8.616;2023-05-07T09:14:35;100481.06;;;28.23;29.89
35716;BME280;21840;44.920;8.616;2023-05-07T09:17:02;100485.22;;;28.53;29.73
35716;BME280;21840;44.920;8.616;2023-05-07T09:19:28;100483.22;;;28.04;30.21
35716;BME280;21840;44.920;8.616;2023-05-07T09:22:03;100482.91;;;28.23;29.89
35716;BME280;21840;44.920;8.616;2023-05-07T09:24:37;100488.69;;;28.09;30.20
35716;BME280;21840;44.920;8.616;2023-05-07T09:27:05;100479.59;;;28.54;29.70
35716;BME280;21840;44.920;8.616;2023-05-07T09:29:31;100487.59;;;27.43;30.97
35716;BME280;21840;44.920;8.616;2023-05-07T09:32:05;100486.25;;;28.30;29.92
35716;BME280;21840;44.920;8.616;2023-05-07T09:34:31;100487.28;;;28.24;29.78
35716;BME280;21840;44.920;8.616;2023-05-07T09:36:58;100477.22;;;28.19;32.16
35716;BME280;21840;44.920;8.616;2023-05-07T09:39:24;100472.66;;;28.03;33.41
35716;BME280;21840;44.920;8.616;2023-05-07T09:41:49;100479.03;;;28.13;32.98
35716;BME280;21840;44.920;8.616;2023-05-07T09:44:27;100481.56;;;28.42;33.35
35716;BME280;21840;44.920;8.616;2023-05-07T09:46:54;100473.31;;;27.93;34.59
35716;BME280;21840;44.920;8.616;2023-05-07T09:49:29;100474.00;;;28.22;34.00
35716;BME280;21840;44.920;8.616;2023-05-07T09:52:00;100478.56;;;28.38;33.41
35716;BME280;21840;44.920;8.616;2023-05-07T09:54:27;100475.19;;;28.09;33.79
35716;BME280;21840;44.920;8.616;2023-05-07T09:56:55;100467.97;;;28.15;33.71
35716;BME280;21840;44.920;8.616;2023-05-07T09:59:24;100469.94;;;28.20;33.95
35716;BME280;21840;44.920;8.616;2023-05-07T10:01:51;100462.25;;;28.11;33.76
35716;BME280;21840;44.920;8.616;2023-05-07T10:04:17;100460.97;;;27.97;33.79
35716;BME280;21840;44.920;8.616;2023-05-07T10:06:44;100462.53;;;28.32;33.21
35716;BME280;21840;44.920;8.616;2023-05-07T10:09:11;100456.22;;;28.43;33.03
35716;BME280;21840;44.920;8.616;2023-05-07T10:11:37;100455.03;;;28.56;32.63
35716;BME280;21840;44.920;8.616;2023-05-07T10:14:07;100449.94;;;28.59;32.68
35716;BME280;21840;44.920;8.616;2023-05-07T10:16:34;100457.81;;;28.44;32.96
35716;BME280;21840;44.920;8.616;2023-05-07T10:19:03;100455.47;;;28.48;32.97
35716;BME280;21840;44.920;8.616;2023-05-07T10:21:29;100440.53;;;28.01;33.89
35716;BME280;21840;44.920;8.616;2023-05-07T10:24:04;100444.06;;;28.24;33.77
35716;BME280;21840;44.920;8.616;2023-05-07T10:26:34;100442.75;;;28.26;33.31
35716;BME280;21840;44.920;8.616;2023-05-07T10:29:05;100433.75;;;28.43;32.87
35716;BME280;21840;44.920;8.616;2023-05-07T10:34:14;100433.31;;;28.73;32.84
35716;BME280;21840;44.920;8.616;2023-05-07T10:36:43;100434.25;;;29.06;32.13
35716;BME280;21840;44.920;8.616;2023-05-07T10:39:09;100430.13;;;29.30;31.64
35716;BME280;21840;44.920;8.616;2023-05-07T10:41:36;100428.78;;;29.33;31.05
35716;BME280;21840;44.920;8.616;2023-05-07T10:44:02;100431.84;;;29.41;31.20
35716;BME280;21840;44.920;8.616;2023-05-07T10:46:31;100431.56;;;29.75;30.55
35716;BME280;21840;44.920;8.616;2023-05-07T10:49:08;100429.84;;;30.01;30.14
35716;BME280;21840;44.920;8.616;2023-05-07T10:51:44;100421.91;;;30.37;30.26
35716;BME280;21840;44.920;8.616;2023-05-07T10:54:24;100424.69;;;30.58;29.49
35716;BME280;21840;44.920;8.616;2023-05-07T10:59:47;100414.78;;;30.89;29.76
35716;BME280;21840;44.920;8.616;2023-05-07T11:05:22;100414.78;;;31.35;28.90
35716;BME280;21840;44.920;8.616;2023-05-07T11:08:08;100399.06;;;31.57;28.58
35716;BME280;21840;44.920;8.616;2023-05-07T11:10:51;100397.72;;;31.45;28.03
35716;BME280;21840;44.920;8.616;2023-05-07T11:13:41;100397.47;;;31.41;28.05
35716;BME280;21840;44.920;8.616;2023-05-07T11:16:16;100392.84;;;31.21;28.14
35716;BME280;21840;44.920;8.616;2023-05-07T11:18:45;100387.69;;;31.55;27.56
35716;BME280;21840;44.920;8.616;2023-05-07T11:21:11;100379.28;;;31.16;28.45
35716;BME280;21840;44.920;8.616;2023-05-07T11:26:23;100392.78;;;31.77;27.71
35716;BME280;21840;44.920;8.616;2023-05-07T11:28:50;100387.41;;;31.52;26.90
35716;BME280;21840;44.920;8.616;2023-05-07T11:31:17;100387.69;;;31.55;26.64
35716;BME280;21840;44.920;8.616;2023-05-07T11:33:45;100385.47;;;31.78;26.42
35716;BME280;21840;44.920;8.616;2023-05-07T11:36:14;100383.59;;;31.32;26.99
35716;BME280;21840;44.920;8.616;2023-05-07T11:38:45;100392.84;;;31.47;27.77
35716;BME280;21840;44.920;8.616;2023-05-07T11:41:10;100383.31;;;31.65;27.63
35716;BME280;21840;44.920;8.616;2023-05-07T11:43:36;100386.28;;;31.73;27.89
35716;BME280;21840;44.920;8.616;2023-05-07T11:46:08;100385.97;;;31.85;27.57
35716;BME280;21840;44.920;8.616;2023-05-07T11:48:33;100378.94;;;31.74;27.63
35716;BME280;21840;44.920;8.616;2023-05-07T11:51:00;100378.34;;;31.87;27.80
35716;BME280;21840;44.920;8.616;2023-05-07T11:53:26;100380.81;;;31.84;27.41
35716;BME280;21840;44.920;8.616;2023-05-07T11:55:52;100379.22;;;31.67;27.23
35716;BME280;21840;44.920;8.616;2023-05-07T11:58:20;100372.13;;;31.87;27.05
35716;BME280;21840;44.920;8.616;2023-05-07T12:00:53;100372.13;;;31.87;26.92
35716;BME280;21840;44.920;8.616;2023-05-07T12:03:18;100371.28;;;32.01;26.73
35716;BME280;21840;44.920;8.616;2023-05-07T12:05:44;100363.16;;;31.91;27.12
35716;BME280;21840;44.920;8.616;2023-05-07T12:08:20;100371.41;;;31.45;27.88
35716;BME280;21840;44.920;8.616;2023-05-07T12:10:46;100365.44;;;31.48;26.92
35716;BME280;21840;44.920;8.616;2023-05-07T12:13:15;100370.25;;;31.72;26.73
35716;BME280;21840;44.920;8.616;2023-05-07T12:15:42;100371.34;;;31.71;26.52
35716;BME280;21840;44.920;8.616;2023-05-07T12:18:07;100378.47;;;31.46;26.49
35716;BME280;21840;44.920;8.616;2023-05-07T12:20:33;100381.97;;;31.52;26.41
35716;BME280;21840;44.920;8.616;2023-05-07T12:22:59;100375.75;;;31.26;26.90
35716;BME280;21840;44.920;8.616;2023-05-07T12:25:24;100375.22;;;31.39;27.05
35716;BME280;21840;44.920;8.616;2023-05-07T12:27:52;100375.75;;;31.41;27.27
35716;BME280;21840;44.920;8.616;2023-05-07T12:30:18;100372.47;;;31.34;27.36
35716;BME280;21840;44.920;8.616;2023-05-07T12:32:45;100371.38;;;30.89;27.50
35716;BME280;21840;44.920;8.616;2023-05-07T12:35:10;100371.06;;;30.75;27.62
35716;BME280;21840;44.920;8.616;2023-05-07T12:37:35;100366.72;;;30.64;27.87
35716;BME280;21840;44.920;8.616;2023-05-07T12:40:08;100364.81;;;30.64;27.96
35716;BME280;21840;44.920;8.616;2023-05-07T12:42:37;100359.94;;;30.77;27.58
35716;BME280;21840;44.920;8.616;2023-05-07T12:45:09;100364.06;;;30.84;27.72
35716;BME280;21840;44.920;8.616;2023-05-07T12:47:35;100358.84;;;30.78;27.89
35716;BME280;21840;44.920;8.616;2023-05-07T12:50:00;100363.22;;;30.79;28.17
35716;BME280;21840;44.920;8.616;2023-05-07T12:52:25;100361.59;;;30.83;27.84
35716;BME280;21840;44.920;8.616;2023-05-07T12:54:51;100353.44;;;30.78;27.93
35716;BME280;21840;44.920;8.616;2023-05-07T12:57:16;100347.78;;;30.84;28.18
35716;BME280;21840;44.920;8.616;2023-05-07T12:59:44;100345.63;;;31.02;27.63
35716;BME280;21840;44.920;8.616;2023-05-07T13:02:09;100337.78;;;31.05;27.48